Gerd Maersk — OYGM2 — position and weather

sailwx.info

Track history (hours):
 
Tides and Currents Weather Stations Pressure Air Temp Water Temp Dewpoint Dewpoint Depression Visibility Wind Speed Wind Dir Waves Ship Positions

Gerd Maersk

Last reported at 2014-Jul-25 23:24 UTC. Time now 2014-Jul-30 15:18 UTC.
Position N 34°59' E 141°59'.

Length 367 m; draft 10.1 m.

Type: Ship (hazmat cat A). MMSI: 220415000.

Date/timePositionNaut miles runAvg speedWind from/ knotsBaromVisibWave heightAir tempDewpointWater temp
2014-Jul-25 23:24N 34°59' E 141°59'7222.7
2014-Jul-25 20:14N 34°26' E 140°41'1723.4
2014-Jul-25 19:31N 34°19' E 140°23'2623.6
2014-Jul-25 18:25N 34°07' E 139°55'3124.5
2014-Jul-25 17:08N 33°53' E 139°21'1524.9
2014-Jul-25 16:33N 33°47' E 139°05'  
2014-Jul-20 16:16N 22°09' E 114°14'19 1.4
2014-Jul-20 02:26N 22°06' E 113°54'8 9.6
2014-Jul-20 01:33N 22°13' E 113°49'1514.7
2014-Jul-20 00:33N 22°28' E 113°45'1211.5
2014-Jul-19 23:33N 22°39' E 113°41'2 0.1
2014-Jul-19 03:24N 22°37' E 113°42'1113.3
2014-Jul-19 02:32N 22°26' E 113°45'1212.2
2014-Jul-19 01:33N 22°14' E 113°49'10 9.8
2014-Jul-19 00:32N 22°04' E 113°51'7 7.1
2014-Jul-18 23:33N 21°57' E 113°51'  
Track history (hours):
 
Tides and Currents Weather Stations Pressure Air Temp Water Temp Dewpoint Dewpoint Depression Visibility Wind Speed Wind Dir Waves Ship Positions

Gerd Maersk

Last reported at 2014-Jul-25 23:24 UTC. Time now 2014-Jul-30 15:18 UTC.
Position N 34°59' E 141°59'.

Length 367 m; draft 10.1 m.

Type: Ship (hazmat cat A). MMSI: 220415000.

Date/timePositionNaut miles runAvg speedWind from/ knotsBaromVisibWave heightAir tempDewpointWater temp
2014-Jul-25 23:24N 34°59' E 141°59'7222.7
2014-Jul-25 20:14N 34°26' E 140°41'1723.4
2014-Jul-25 19:31N 34°19' E 140°23'2623.6
2014-Jul-25 18:25N 34°07' E 139°55'3124.5
2014-Jul-25 17:08N 33°53' E 139°21'1524.9
2014-Jul-25 16:33N 33°47' E 139°05'  
2014-Jul-20 16:16N 22°09' E 114°14'19 1.4
2014-Jul-20 02:26N 22°06' E 113°54'8 9.6
2014-Jul-20 01:33N 22°13' E 113°49'1514.7
2014-Jul-20 00:33N 22°28' E 113°45'1211.5
2014-Jul-19 23:33N 22°39' E 113°41'2 0.1
2014-Jul-19 03:24N 22°37' E 113°42'1113.3
2014-Jul-19 02:32N 22°26' E 113°45'1212.2
2014-Jul-19 01:33N 22°14' E 113°49'10 9.8
2014-Jul-19 00:32N 22°04' E 113°51'7 7.1
2014-Jul-18 23:33N 21°57' E 113°51'  

Dump ship's entire track history